Time;durP1;ratioP1;P1;durP2;ratioP2;P2;SDS_P1;SDS_P2;PMS_P1;PMS_P2;Temp;Humidity;BMP_temperature;BMP_pressure;BME280_temperature;BME280_humidity;BME280_pressure;Samples;Min_cycle;Max_cycle;Signal;HPM_P1;HPM_P2
2023/10/19 00:00:39;;;;;;;19.05;11.20;;;;;;;15.68;47.42;97410.50;4395142;32;20117;-81
2023/10/19 00:03:06;;;;;;;22.17;10.95;;;;;;;15.56;48.34;97406.16;4381081;32;20082;-80
2023/10/19 00:05:34;;;;;;;21.08;11.10;;;;;;;14.95;48.97;97408.78;4394939;32;20078;-80
2023/10/19 00:08:14;;;;;;;20.70;11.15;;;;;;;15.77;47.59;97401.19;4394888;32;20145;-81
2023/10/19 00:10:49;;;;;;;19.95;11.07;;;;;;;16.08;46.99;97384.97;4395177;32;20099;-81
2023/10/19 00:13:19;;;;;;;21.87;11.45;;;;;;;15.84;46.95;97379.81;4395004;32;20454;-81
2023/10/19 00:15:51;;;;;;;28.90;11.52;;;;;;;15.94;46.90;97392.94;4394542;32;20082;-80
2023/10/19 00:21:23;;;;;;;22.65;11.35;;;;;;;15.67;48.66;97385.44;4394981;32;20154;-80
2023/10/19 00:23:40;;;;;;;22.23;12.85;;;;;;;15.91;48.05;97382.78;4392408;32;20094;-80
2023/10/19 00:26:25;;;;;;;23.95;12.55;;;;;;;16.37;47.73;97374.91;4394990;32;20094;-81
2023/10/19 00:28:55;;;;;;;21.52;12.02;;;;;;;16.45;47.07;97375.16;4395003;32;20117;-81
2023/10/19 00:31:33;;;;;;;24.17;13.02;;;;;;;15.86;48.67;97362.31;4381055;32;20102;-80
2023/10/19 00:34:00;;;;;;;19.77;12.10;;;;;;;15.92;48.71;97358.41;4394950;32;20142;-80
2023/10/19 00:36:30;;;;;;;23.60;12.20;;;;;;;15.38;49.96;97353.75;4394483;32;20433;-80
2023/10/19 00:39:00;;;;;;;22.85;12.73;;;;;;;15.27;50.84;97354.53;4394872;32;20441;-81
2023/10/19 00:41:30;;;;;;;22.30;13.05;;;;;;;14.72;51.98;97348.09;4394687;32;20116;-81
2023/10/19 00:44:11;;;;;;;25.20;12.50;;;;;;;14.92;51.54;97336.28;4394562;32;20603;-80
2023/10/19 00:49:13;;;;;;;22.02;12.23;;;;;;;13.69;55.67;97335.25;4394806;32;20209;-81
2023/10/19 00:57:20;;;;;;;23.67;13.55;;;;;;;15.53;51.54;97331.84;4394381;32;20096;-80
2023/10/19 01:05:05;;;;;;;26.75;14.52;;;;;;;15.51;51.75;97312.88;4393862;32;20087;-80
2023/10/19 01:07:41;;;;;;;26.33;13.73;;;;;;;15.82;51.60;97308.03;4393975;32;20166;-81
2023/10/19 01:10:12;;;;;;;25.08;14.85;;;;;;;15.44;52.10;97301.31;4382004;32;20144;-80
2023/10/19 01:12:39;;;;;;;25.80;14.38;;;;;;;14.80;55.13;97290.41;4394290;32;20437;-81
2023/10/19 01:15:23;;;;;;;23.55;13.82;;;;;;;14.94;54.97;97281.63;4394485;32;20086;-81
2023/10/19 01:17:52;;;;;;;23.70;14.90;;;;;;;14.54;57.24;97274.06;4394407;32;20109;-81
2023/10/19 01:28:51;;;;;;;25.55;14.50;;;;;;;14.38;59.30;97276.91;4394577;32;20490;-80
2023/10/19 01:31:30;;;;;;;24.83;14.95;;;;;;;15.36;55.74;97264.66;4394312;32;20098;-81
2023/10/19 01:34:05;;;;;;;26.12;15.35;;;;;;;15.45;55.55;97273.53;4393983;32;20366;-81
2023/10/19 01:36:42;;;;;;;26.55;15.77;;;;;;;16.14;53.57;97258.72;4394179;32;20086;-81
2023/10/19 01:39:09;;;;;;;25.88;15.10;;;;;;;16.41;52.78;97274.81;4381590;32;20149;-81
2023/10/19 01:41:37;;;;;;;26.12;15.80;;;;;;;15.55;54.85;97262.34;4393847;32;20432;-81
2023/10/19 01:44:04;;;;;;;27.00;15.48;;;;;;;15.18;56.18;97256.44;4394129;32;20405;-81
2023/10/19 01:46:35;;;;;;;25.85;15.43;;;;;;;15.94;54.11;97249.03;4393723;32;20097;-80
2023/10/19 01:49:04;;;;;;;22.77;13.77;;;;;;;16.32;52.83;97252.09;4394129;32;20101;-81
2023/10/19 01:51:33;;;;;;;29.77;15.82;;;;;;;14.60;57.15;97234.72;4393926;32;20116;-81
2023/10/19 01:54:03;;;;;;;26.62;15.68;;;;;;;14.51;59.16;97234.53;4393813;32;20148;-80
2023/10/19 01:56:30;;;;;;;25.42;15.15;;;;;;;15.58;55.28;97237.88;4393946;32;20087;-81
2023/10/19 01:58:58;;;;;;;28.05;16.37;;;;;;;15.30;56.04;97226.94;4393906;32;20083;-81
2023/10/19 02:01:28;;;;;;;28.50;16.25;;;;;;;15.29;56.37;97214.06;4393467;32;20134;-80
2023/10/19 02:04:05;;;;;;;25.80;14.75;;;;;;;15.03;57.39;97211.66;4393641;32;20085;-81
2023/10/19 02:11:52;;;;;;;29.23;15.95;;;;;;;15.05;57.31;97204.56;4393756;32;20162;-81
2023/10/19 02:14:20;;;;;;;30.17;16.20;;;;;;;15.02;58.50;97202.19;4393650;32;20115;-80
2023/10/19 02:16:56;;;;;;;26.90;15.15;;;;;;;14.70;59.38;97199.38;4393526;32;20136;-81
2023/10/19 02:19:25;;;;;;;26.80;15.88;;;;;;;14.67;58.50;97189.22;4394010;32;20152;-81
2023/10/19 02:21:55;;;;;;;28.02;16.65;;;;;;;14.96;59.20;97189.66;4395256;32;20441;-80
2023/10/19 02:24:23;;;;;;;27.37;16.52;;;;;;;15.06;57.92;97192.41;4395827;32;20535;-81
2023/10/19 02:26:52;;;;;;;32.22;16.92;;;;;;;15.03;58.23;97182.25;4395665;32;20438;-81
2023/10/19 02:29:19;;;;;;;26.17;15.80;;;;;;;14.92;58.37;97177.84;4395338;32;20108;-80
2023/10/19 02:31:47;;;;;;;29.52;14.73;;;;;;;14.93;59.18;97176.06;4395599;32;20128;-81
2023/10/19 02:34:15;;;;;;;29.10;16.20;;;;;;;15.18;58.96;97178.47;4395703;32;20146;-81
2023/10/19 02:36:43;;;;;;;29.02;16.08;;;;;;;14.92;61.03;97169.22;4395206;32;20458;-81
2023/10/19 02:39:14;;;;;;;28.27;16.33;;;;;;;16.17;57.19;97170.84;4395656;32;20213;-81
2023/10/19 02:41:46;;;;;;;28.00;16.33;;;;;;;15.55;59.19;97173.13;4395674;32;20162;-81
2023/10/19 02:44:23;;;;;;;31.37;16.95;;;;;;;13.92;63.66;97161.72;4395320;32;20113;-81
2023/10/19 02:46:52;;;;;;;27.33;16.12;;;;;;;15.52;59.90;97170.72;4395601;32;20087;-81
2023/10/19 02:49:22;;;;;;;29.83;17.50;;;;;;;14.98;62.14;97160.97;4395720;32;20156;-81
2023/10/19 02:51:50;;;;;;;29.80;17.75;;;;;;;15.88;58.97;97164.50;4395313;32;20125;-81
2023/10/19 02:54:22;;;;;;;32.60;17.70;;;;;;;15.73;59.65;97161.31;4395596;32;20090;-81
2023/10/19 02:56:52;;;;;;;30.20;16.87;;;;;;;14.94;61.94;97147.38;4395181;32;20086;-80
2023/10/19 02:59:24;;;;;;;34.63;19.50;;;;;;;14.41;65.03;97152.13;4395602;32;20078;-80
2023/10/19 03:02:15;;;;;;;29.40;17.98;;;;;;;14.79;64.21;97152.91;4395390;32;20156;-81
2023/10/19 03:04:43;;;;;;;28.65;16.77;;;;;;;14.39;65.73;97159.19;4378719;32;20527;-80
2023/10/19 03:07:12;;;;;;;32.67;18.92;;;;;;;14.52;64.26;97156.56;4380441;32;20087;-81
2023/10/19 03:09:42;;;;;;;31.98;18.67;;;;;;;14.86;64.80;97161.88;4380454;32;20094;-81
2023/10/19 03:12:10;;;;;;;32.75;18.25;;;;;;;15.19;62.88;97156.75;4379907;32;20109;-81
2023/10/19 03:14:37;;;;;;;32.55;18.87;;;;;;;15.14;63.57;97161.47;4380442;32;20107;-81
2023/10/19 03:17:05;;;;;;;30.42;18.73;;;;;;;15.09;63.32;97155.78;4379156;32;20417;-81
2023/10/19 03:19:34;;;;;;;30.95;18.48;;;;;;;14.97;64.40;97157.53;4379909;32;20129;-81
2023/10/19 03:22:05;;;;;;;33.33;18.70;;;;;;;15.73;61.67;97143.09;4380273;32;20095;-81
2023/10/19 03:24:36;;;;;;;29.92;18.52;;;;;;;15.80;61.07;97146.88;4378985;32;20129;-81
2023/10/19 03:27:21;;;;;;;31.90;19.85;;;;;;;15.64;61.57;97149.03;4380392;32;20087;-81
2023/10/19 03:29:59;;;;;;;33.28;19.42;;;;;;;16.45;59.11;97153.03;4380398;32;20589;-81
2023/10/19 03:32:26;;;;;;;32.00;20.17;;;;;;;16.37;58.25;97145.81;4379823;32;20114;-80
2023/10/19 03:34:55;;;;;;;33.03;18.95;;;;;;;15.11;61.86;97137.50;4379170;32;20434;-81
2023/10/19 03:37:25;;;;;;;33.75;20.55;;;;;;;15.78;60.49;97138.38;4380121;32;20103;-81
2023/10/19 03:39:55;;;;;;;31.33;19.98;;;;;;;16.44;58.08;97135.75;4379792;32;20433;-80
2023/10/19 03:42:31;;;;;;;33.25;18.87;;;;;;;15.50;60.51;97121.44;4380155;32;20153;-81
2023/10/19 03:45:02;;;;;;;33.85;20.23;;;;;;;15.79;60.91;97127.03;4379212;32;20356;-81
2023/10/19 03:47:35;;;;;;;31.67;19.33;;;;;;;15.28;61.33;97101.47;4379935;32;20177;-81
2023/10/19 03:50:06;;;;;;;33.53;19.55;;;;;;;15.82;60.62;97111.19;4380171;32;20097;-81
2023/10/19 03:52:37;;;;;;;32.53;20.58;;;;;;;15.50;61.65;97105.84;4379844;32;20137;-80
2023/10/19 03:55:11;;;;;;;36.83;20.50;;;;;;;15.43;61.99;97089.09;4380128;32;20485;-80
2023/10/19 03:57:46;;;;;;;34.72;19.90;;;;;;;15.27;61.98;97094.63;4380045;32;20095;-81
2023/10/19 04:00:25;;;;;;;31.80;20.40;;;;;;;15.55;60.78;97085.53;4378765;32;20075;-80
2023/10/19 04:02:58;;;;;;;31.55;19.45;;;;;;;15.91;60.02;97092.25;4379987;32;20118;-81
2023/10/19 04:05:28;;;;;;;35.20;20.23;;;;;;;15.54;61.51;97086.50;4393500;32;20090;-81
2023/10/19 04:07:57;;;;;;;30.85;19.33;;;;;;;16.34;58.44;97083.59;4394732;32;20090;-81
2023/10/19 04:10:38;;;;;;;30.58;19.08;;;;;;;16.53;57.99;97079.50;4395032;32;20109;-81
2023/10/19 04:13:09;;;;;;;35.75;20.83;;;;;;;16.80;57.54;97074.66;4395030;32;20094;-81
2023/10/19 04:15:41;;;;;;;35.00;19.62;;;;;;;15.70;60.72;97078.34;4394664;32;20171;-81
2023/10/19 04:18:08;;;;;;;32.53;19.42;;;;;;;15.91;59.69;97070.59;4395129;32;20082;-81
2023/10/19 04:23:10;;;;;;;36.17;21.17;;;;;;;15.89;61.28;97075.94;4394992;32;20481;-81
2023/10/19 04:25:39;;;;;;;30.40;18.67;;;;;;;16.17;59.34;97078.94;4394932;32;20156;-81
2023/10/19 04:28:06;;;;;;;35.53;20.17;;;;;;;16.79;57.61;97072.97;4394668;32;20090;-81
2023/10/19 04:30:36;;;;;;;32.47;20.10;;;;;;;17.42;55.66;97072.88;4394910;32;20154;-81
2023/10/19 04:33:08;;;;;;;33.60;20.83;;;;;;;17.22;55.59;97064.16;4394839;32;20110;-81
2023/10/19 04:35:37;;;;;;;36.85;21.52;;;;;;;17.22;55.21;97064.16;4394488;32;20102;-81
2023/10/19 04:38:08;;;;;;;32.67;19.73;;;;;;;18.25;51.73;97053.44;4394833;32;20109;-81
2023/10/19 04:40:35;;;;;;;31.35;18.83;;;;;;;18.14;51.92;97055.22;4394883;32;20105;-81
2023/10/19 04:43:05;;;;;;;33.33;20.15;;;;;;;18.19;51.79;97060.88;4393636;32;20094;-81
2023/10/19 04:45:32;;;;;;;34.38;20.00;;;;;;;17.85;52.74;97054.38;4394781;32;20106;-81
2023/10/19 04:47:59;;;;;;;33.33;20.23;;;;;;;18.13;52.43;97052.75;4394805;32;20464;-82
2023/10/19 04:50:26;;;;;;;31.60;20.42;;;;;;;17.82;52.90;97052.03;4394347;32;20150;-81
2023/10/19 04:52:53;;;;;;;32.88;20.48;;;;;;;17.79;53.16;97039.28;4394648;32;20544;-81
2023/10/19 04:55:20;;;;;;;32.83;20.25;;;;;;;18.21;51.96;97038.06;4394747;32;20098;-81
2023/10/19 04:57:48;;;;;;;33.03;21.12;;;;;;;17.01;54.70;97036.37;4394278;32;20090;-81
2023/10/19 05:00:20;;;;;;;32.63;20.30;;;;;;;16.96;55.60;97024.69;4394644;32;20460;-81
2023/10/19 05:02:47;;;;;;;36.42;21.45;;;;;;;17.33;54.29;97024.97;4394339;32;20098;-81
2023/10/19 05:05:16;;;;;;;34.83;20.92;;;;;;;16.79;56.31;97018.28;4394294;32;20161;-81
2023/10/19 05:07:44;;;;;;;35.92;21.27;;;;;;;17.49;54.57;97019.25;4394645;32;20083;-81
2023/10/19 05:10:12;;;;;;;34.33;21.60;;;;;;;17.00;55.64;97013.84;4394285;32;20633;-81
2023/10/19 05:12:39;;;;;;;33.65;21.30;;;;;;;17.38;54.88;97022.78;4394428;32;20099;-81
2023/10/19 05:15:06;;;;;;;33.30;21.25;;;;;;;17.06;55.76;97017.75;4394512;32;20109;-81
2023/10/19 05:17:33;;;;;;;31.77;21.23;;;;;;;16.96;56.16;97020.28;4394204;32;20098;-81
2023/10/19 05:20:00;;;;;;;36.40;21.50;;;;;;;17.71;53.78;97016.44;4394431;32;20087;-81
2023/10/19 05:22:29;;;;;;;33.30;19.95;;;;;;;18.28;51.90;97014.81;4393482;32;20132;-76
2023/10/19 05:24:56;;;;;;;35.95;20.52;;;;;;;17.72;53.12;97014.66;4394083;32;20117;-76
2023/10/19 05:27:23;;;;;;;34.88;20.25;;;;;;;17.41;54.36;97013.87;4394472;32;20121;-76
2023/10/19 05:29:51;;;;;;;36.33;21.00;;;;;;;17.84;53.78;97013.59;4394355;32;20472;-76
2023/10/19 05:32:18;;;;;;;33.42;20.95;;;;;;;17.23;55.07;97013.69;4393091;32;20102;-76
2023/10/19 05:34:45;;;;;;;37.42;21.52;;;;;;;17.20;54.87;97012.16;4394235;32;20185;-76
2023/10/19 05:37:12;;;;;;;36.42;21.40;;;;;;;17.89;53.38;97008.78;4394110;32;20148;-76
2023/10/19 05:39:39;;;;;;;32.42;19.90;;;;;;;17.91;52.97;97012.91;4393859;32;20082;-76
2023/10/19 05:42:06;;;;;;;30.45;19.02;;;;;;;18.19;52.23;97019.13;4393474;32;20106;-76
2023/10/19 05:44:34;;;;;;;35.50;20.52;;;;;;;17.24;54.82;97017.97;4393934;32;20632;-76
2023/10/19 05:47:02;;;;;;;35.83;20.33;;;;;;;17.05;55.65;97016.09;4393738;32;20094;-76
2023/10/19 05:49:29;;;;;;;33.08;19.58;;;;;;;16.84;56.20;97013.53;4394018;32;20099;-77
2023/10/19 05:51:56;;;;;;;33.28;20.95;;;;;;;17.51;54.57;97012.94;4393649;32;20101;-77
2023/10/19 05:54:23;;;;;;;35.17;20.88;;;;;;;17.74;54.36;97010.97;4394084;32;20137;-77
2023/10/19 05:56:52;;;;;;;35.38;20.10;;;;;;;17.27;55.59;97005.47;4395992;32;20444;-77
2023/10/19 05:59:19;;;;;;;34.00;20.80;;;;;;;17.92;53.95;97011.94;4395512;32;20105;-76
2023/10/19 06:01:47;;;;;;;30.08;19.12;;;;;;;17.57;54.89;97014.22;4395780;32;20121;-77
2023/10/19 06:04:15;;;;;;;37.55;20.10;;;;;;;18.01;53.45;97020.75;4395541;32;20124;-77
2023/10/19 06:06:48;;;;;;;35.60;19.20;;;;;;;18.18;52.59;97008.78;4395323;32;20381;-77
2023/10/19 06:09:16;;;;;;;32.13;18.90;;;;;;;19.08;50.41;97011.81;4395718;32;20082;-78
2023/10/19 06:11:45;;;;;;;30.35;19.27;;;;;;;18.81;51.73;97022.19;4369926;32;20519;-78
2023/10/19 06:14:13;;;;;;;28.67;17.95;;;;;;;18.20;52.48;97010.31;4369383;32;20110;-78
2023/10/19 06:16:40;;;;;;;33.47;18.83;;;;;;;19.06;50.25;97012.94;4395911;32;20137;-79
2023/10/19 06:19:08;;;;;;;37.25;19.08;;;;;;;19.31;49.51;97016.66;4395686;32;20161;-79
2023/10/19 06:21:36;;;;;;;31.05;19.42;;;;;;;19.28;49.78;97024.81;4395711;32;20090;-80
2023/10/19 06:24:03;;;;;;;32.47;18.73;;;;;;;19.86;48.78;97027.94;4395745;32;20108;-81
2023/10/19 06:26:30;;;;;;;32.67;19.40;;;;;;;19.69;49.23;97025.31;4395937;32;20453;-80
2023/10/19 06:29:00;;;;;;;35.75;22.62;;;;;;;19.71;48.46;97016.34;4395291;32;20418;-80
2023/10/19 06:31:28;;;;;;;32.33;21.10;;;;;;;20.56;46.15;97009.78;4395617;32;20106;-81
2023/10/19 06:34:00;;;;;;;37.45;22.37;;;;;;;18.82;50.11;97008.19;4395402;32;20145;-82
2023/10/19 06:36:29;;;;;;;39.22;23.10;;;;;;;18.50;51.70;97005.87;4395416;32;20113;-81
2023/10/19 06:38:56;;;;;;;37.75;21.75;;;;;;;18.70;51.63;97004.91;4381867;32;20152;-81
2023/10/19 06:41:23;;;;;;;30.48;20.30;;;;;;;19.86;48.80;97009.62;4395059;32;20094;-81
2023/10/19 06:43:50;;;;;;;34.90;19.92;;;;;;;19.07;50.37;96998.87;4395310;32;20109;-80
2023/10/19 06:46:17;;;;;;;33.53;19.20;;;;;;;18.97;51.08;96991.06;4395458;32;20787;-80
2023/10/19 06:48:45;;;;;;;27.40;18.37;;;;;;;19.85;48.87;96983.59;4395919;32;20082;-80
2023/10/19 06:51:12;;;;;;;30.17;17.85;;;;;;;20.68;46.54;96979.72;4381835;32;20110;-79
2023/10/19 06:53:39;;;;;;;29.12;18.17;;;;;;;20.41;46.82;96983.25;4395398;32;20102;-79
2023/10/19 06:56:06;;;;;;;26.77;15.88;;;;;;;20.35;48.32;96989.13;4395047;32;20109;-79
2023/10/19 06:58:34;;;;;;;27.85;15.23;;;;;;;21.46;44.58;96982.25;4395330;32;20075;-79
2023/10/19 07:01:05;;;;;;;24.92;15.60;;;;;;;21.84;44.43;96980.88;4381799;32;20116;-80
2023/10/19 07:03:33;;;;;;;25.55;15.40;;;;;;;22.82;42.41;96986.12;4381690;32;20149;-80
2023/10/19 07:06:02;;;;;;;23.92;14.35;;;;;;;22.89;41.56;96979.25;4394833;32;20102;-80
2023/10/19 07:08:35;;;;;;;23.70;13.88;;;;;;;23.51;40.57;96986.44;4395441;32;20083;-80
2023/10/19 07:11:02;;;;;;;24.17;12.75;;;;;;;23.67;39.98;96979.28;4394869;32;20722;-80
2023/10/19 07:13:32;;;;;;;20.83;12.55;;;;;;;23.81;39.65;96979.50;4395192;32;20420;-80
2023/10/19 07:16:00;;;;;;;19.77;12.15;;;;;;;22.86;41.29;96969.03;4381928;32;20098;-80
2023/10/19 07:18:28;;;;;;;22.20;12.27;;;;;;;22.79;41.93;96966.25;4381548;32;20473;-80
2023/10/19 07:21:02;;;;;;;19.35;11.30;;;;;;;23.75;40.10;96972.34;4395222;32;20155;-80
2023/10/19 07:23:30;;;;;;;18.60;11.30;;;;;;;23.27;41.06;96956.56;4394940;32;20161;-80
2023/10/19 07:26:00;;;;;;;18.98;11.00;;;;;;;23.41;40.66;96965.56;4395013;32;20393;-80
2023/10/19 07:28:27;;;;;;;19.08;11.00;;;;;;;24.05;39.53;96962.75;4395255;32;20090;-79
2023/10/19 07:30:55;;;;;;;19.27;10.57;;;;;;;24.67;38.08;96958.13;4394806;32;20102;-80
2023/10/19 07:33:24;;;;;;;18.37;10.05;;;;;;;24.93;37.75;96939.19;4382436;32;20154;-79
2023/10/19 07:35:54;;;;;;;17.80;10.07;;;;;;;25.04;37.20;96943.22;4395881;32;20090;-80
2023/10/19 07:38:23;;;;;;;16.10;9.10;;;;;;;24.76;38.66;96943.81;4381595;32;20090;-80
2023/10/19 07:40:53;;;;;;;16.37;8.63;;;;;;;25.31;36.98;96952.31;4395040;32;20160;-81
2023/10/19 07:43:21;;;;;;;15.82;8.90;;;;;;;25.19;37.75;96951.13;4395009;32;20097;-80
2023/10/19 07:45:49;;;;;;;14.20;7.22;;;;;;;25.67;36.93;96949.66;4394586;32;20086;-81
2023/10/19 07:48:16;;;;;;;12.20;6.85;;;;;;;25.27;38.06;96951.03;4398735;32;20079;-79
2023/10/19 07:50:44;;;;;;;12.60;6.50;;;;;;;23.77;40.76;96949.25;4395382;32;20110;-80
2023/10/19 07:53:11;;;;;;;14.52;7.53;;;;;;;23.87;40.56;96945.41;4381083;32;20449;-83
2023/10/19 07:55:39;;;;;;;14.73;7.47;;;;;;;23.16;41.98;96946.44;4383241;32;20109;-80
2023/10/19 07:58:06;;;;;;;14.77;7.28;;;;;;;22.44;43.96;96938.56;4381469;32;20165;-81
2023/10/19 08:00:34;;;;;;;15.13;7.53;;;;;;;23.03;43.09;96938.25;4394752;32;20362;-81
2023/10/19 08:03:05;;;;;;;13.62;7.55;;;;;;;23.25;42.42;96944.59;4394902;32;20128;-80
2023/10/19 08:05:35;;;;;;;15.05;7.95;;;;;;;22.89;42.86;96933.72;4394404;32;20166;-81
2023/10/19 08:08:04;;;;;;;12.57;6.82;;;;;;;22.14;44.74;96926.91;4381710;32;20101;-80
2023/10/19 08:10:32;;;;;;;15.48;7.55;;;;;;;21.29;47.35;96917.59;4394962;32;20114;-79
2023/10/19 08:13:01;;;;;;;15.25;7.03;;;;;;;21.70;46.89;96917.69;4394504;32;20133;-80
2023/10/19 08:15:30;;;;;;;14.85;7.12;;;;;;;21.59;47.13;96908.31;4394843;32;20108;-80
2023/10/19 08:17:57;;;;;;;15.07;7.03;;;;;;;21.44;47.30;96910.72;4393823;32;20075;-79
2023/10/19 08:20:30;;;;;;;15.55;7.78;;;;;;;21.92;46.96;96917.03;4394482;32;20117;-79
2023/10/19 08:22:58;;;;;;;12.32;6.68;;;;;;;21.66;47.66;96902.25;4394790;32;20373;-79
2023/10/19 08:25:29;;;;;;;13.38;6.82;;;;;;;21.76;47.52;96904.72;4394717;32;20296;-80
2023/10/19 08:28:15;;;;;;;16.40;7.55;;;;;;;21.55;48.36;96905.19;4394539;32;20156;-79
2023/10/19 08:30:45;;;;;;;12.98;6.93;;;;;;;21.37;48.65;96896.59;4394802;32;20158;-79
2023/10/19 08:33:13;;;;;;;14.65;7.05;;;;;;;21.89;47.70;96888.47;4381125;32;20130;-79
2023/10/19 08:35:40;;;;;;;13.55;6.45;;;;;;;21.66;48.31;96891.75;4394715;32;20137;-79
2023/10/19 08:38:11;;;;;;;12.93;6.15;;;;;;;21.60;48.77;96871.41;4394755;32;20140;-79
2023/10/19 08:40:39;;;;;;;10.52;5.20;;;;;;;22.01;48.41;96876.66;4394526;32;20730;-79
2023/10/19 08:43:10;;;;;;;15.13;6.03;;;;;;;21.70;49.31;96873.88;4394731;32;20094;-79
2023/10/19 08:45:37;;;;;;;12.60;6.28;;;;;;;21.62;49.64;96872.06;4381406;32;20149;-79
2023/10/19 08:48:04;;;;;;;12.45;6.28;;;;;;;21.42;50.08;96868.09;4394400;32;20105;-79
2023/10/19 08:50:33;;;;;;;13.25;6.68;;;;;;;21.69;49.47;96842.50;4394618;32;20112;-79
2023/10/19 08:53:05;;;;;;;12.32;6.53;;;;;;;20.92;51.24;96852.34;4381309;32;20125;-79
2023/10/19 08:55:34;;;;;;;12.18;5.55;;;;;;;21.38;50.24;96866.78;4394189;32;20090;-78
2023/10/19 08:58:16;;;;;;;12.10;5.78;;;;;;;21.16;51.43;96854.22;4394495;32;20083;-78
2023/10/19 09:00:51;;;;;;;11.88;6.28;;;;;;;21.18;51.36;96853.09;4394627;32;20113;-78
2023/10/19 09:03:18;;;;;;;13.62;6.05;;;;;;;21.32;51.35;96851.69;4393938;32;20128;-78
2023/10/19 09:05:47;;;;;;;10.95;5.70;;;;;;;21.95;49.49;96856.31;4394497;32;20350;-79
2023/10/19 09:08:19;;;;;;;11.32;5.55;;;;;;;22.18;49.38;96849.41;4394511;32;20138;-78
2023/10/19 09:10:48;;;;;;;13.77;5.68;;;;;;;21.50;50.84;96849.75;4394470;32;20098;-78
2023/10/19 09:13:18;;;;;;;10.88;5.62;;;;;;;22.26;49.29;96848.56;4394326;32;20094;-78
2023/10/19 09:15:48;;;;;;;12.88;5.82;;;;;;;22.39;48.13;96853.31;4380882;32;20090;-78
2023/10/19 09:18:23;;;;;;;15.50;5.65;;;;;;;22.44;48.42;96857.09;4394354;32;20100;-78
2023/10/19 09:21:07;;;;;;;12.07;5.45;;;;;;;22.10;49.53;96848.59;4394159;32;20103;-79
2023/10/19 09:23:36;;;;;;;11.85;5.80;;;;;;;22.41;49.01;96851.31;4382138;32;20534;-79
2023/10/19 09:26:05;;;;;;;12.55;5.70;;;;;;;22.85;48.31;96843.81;4393983;32;20146;-80
2023/10/19 09:28:36;;;;;;;11.45;5.82;;;;;;;22.70;48.19;96843.69;4393815;32;20086;-80
2023/10/19 09:31:04;;;;;;;13.43;5.60;;;;;;;22.95;48.22;96843.59;4380156;32;20469;-79
2023/10/19 09:33:34;;;;;;;13.95;5.20;;;;;;;22.72;48.44;96831.19;4394049;32;20117;-79
2023/10/19 09:36:05;;;;;;;10.50;5.10;;;;;;;22.41;49.37;96839.00;4380829;32;20452;-78
2023/10/19 09:38:32;;;;;;;12.25;5.45;;;;;;;22.61;49.20;96836.81;4380541;32;20370;-78
2023/10/19 09:41:00;;;;;;;11.27;5.60;;;;;;;22.07;49.50;96820.88;4394040;32;20091;-78
2023/10/19 09:43:38;;;;;;;14.82;5.75;;;;;;;21.90;50.24;96827.06;4393795;32;20193;-77
2023/10/19 09:46:11;;;;;;;11.05;5.30;;;;;;;21.08;52.64;96834.06;4393907;32;20090;-77
2023/10/19 09:48:42;;;;;;;12.25;5.62;;;;;;;21.13;52.51;96836.19;4394036;32;20101;-78
2023/10/19 09:51:10;;;;;;;11.43;5.47;;;;;;;21.51;51.97;96826.94;4380077;32;20106;-78
2023/10/19 09:53:40;;;;;;;11.32;5.30;;;;;;;22.03;50.73;96814.28;4393826;32;20098;-78
2023/10/19 09:56:13;;;;;;;10.63;5.20;;;;;;;22.51;49.86;96820.41;4393653;32;20091;-78
2023/10/19 09:58:48;;;;;;;10.75;4.82;;;;;;;21.81;51.04;96813.16;4393204;32;20090;-77
2023/10/19 10:01:16;;;;;;;10.98;4.62;;;;;;;21.49;52.62;96802.69;4393845;32;20120;-78
2023/10/19 10:03:44;;;;;;;9.95;4.90;;;;;;;22.01;51.52;96807.53;4393434;32;20098;-79
2023/10/19 10:06:13;;;;;;;9.73;4.10;;;;;;;21.98;51.82;96798.19;4379553;32;20109;-77
2023/10/19 10:08:45;;;;;;;9.48;4.68;;;;;;;22.78;49.78;96793.69;4393743;32;20123;-78
2023/10/19 10:11:22;;;;;;;11.18;4.80;;;;;;;23.22;48.75;96795.75;4393503;32;20122;-78
2023/10/19 10:13:53;;;;;;;10.90;4.37;;;;;;;22.85;49.28;96777.22;4393444;32;20121;-79
2023/10/19 10:16:28;;;;;;;11.20;4.72;;;;;;;22.88;49.29;96779.53;4393519;32;20433;-79
2023/10/19 10:18:59;;;;;;;13.75;4.87;;;;;;;22.60;49.70;96784.41;4393342;32;20136;-78
2023/10/19 10:21:28;;;;;;;19.85;6.75;;;;;;;23.05;49.26;96775.81;4393439;32;20094;-78
2023/10/19 10:24:00;;;;;;;12.95;4.60;;;;;;;22.94;49.20;96779.66;4393204;32;20125;-78
2023/10/19 10:26:36;;;;;;;8.27;3.85;;;;;;;22.44;50.91;96777.44;4379346;32;20102;-78
2023/10/19 10:29:26;;;;;;;11.38;4.37;;;;;;;22.87;50.12;96778.72;4393406;32;20101;-78
2023/10/19 10:31:53;;;;;;;9.95;4.57;;;;;;;22.93;49.66;96782.47;4393270;32;20450;-77
2023/10/19 10:34:42;;;;;;;13.48;4.43;;;;;;;23.19;49.24;96754.03;4392969;32;20094;-78
2023/10/19 10:37:15;;;;;;;10.43;4.37;;;;;;;23.16;49.52;96754.34;4393252;32;20091;-77
2023/10/19 10:39:44;;;;;;;13.95;5.00;;;;;;;22.96;50.30;96755.81;4392861;32;20154;-77
2023/10/19 10:42:12;;;;;;;14.57;5.07;;;;;;;22.98;50.16;96752.03;4395038;32;20122;-78
2023/10/19 10:44:47;;;;;;;11.07;4.78;;;;;;;22.46;51.21;96751.78;4402246;32;20074;-78
2023/10/19 10:47:22;;;;;;;9.93;4.62;;;;;;;22.81;50.79;96745.19;4398741;32;20090;-79
2023/10/19 10:49:56;;;;;;;9.38;4.25;;;;;;;22.82;50.48;96744.19;4395469;32;20437;-79
2023/10/19 10:52:43;;;;;;;10.85;4.43;;;;;;;23.32;49.76;96729.75;4381786;32;20116;-79
2023/10/19 10:55:12;;;;;;;10.55;4.78;;;;;;;23.21;50.03;96717.81;4395029;32;20097;-78
2023/10/19 10:57:40;;;;;;;9.80;4.40;;;;;;;23.06;50.26;96724.81;4395224;32;20180;-78
2023/10/19 11:00:19;;;;;;;12.05;4.20;;;;;;;23.51;49.03;96712.62;4395030;32;20082;-78
2023/10/19 11:02:59;;;;;;;7.57;3.33;;;;;;;23.59;49.51;96715.19;4394934;32;20106;-78
2023/10/19 11:05:26;;;;;;;10.10;4.28;;;;;;;23.93;48.75;96717.34;4394998;32;20162;-78
2023/10/19 11:08:13;;;;;;;9.80;3.90;;;;;;;23.69;49.04;96714.94;4394942;32;20132;-79
2023/10/19 11:10:42;;;;;;;8.40;3.62;;;;;;;23.77;48.90;96701.72;4395425;32;20100;-78
2023/10/19 11:13:10;;;;;;;8.35;4.10;;;;;;;24.19;48.29;96701.06;4395089;32;20094;-79
2023/10/19 11:15:39;;;;;;;8.85;3.42;;;;;;;23.67;49.81;96712.50;4381090;32;20106;-79
2023/10/19 11:18:09;;;;;;;10.25;3.42;;;;;;;23.68;49.21;96698.34;4395292;32;20147;-78
2023/10/19 11:20:36;;;;;;;9.20;3.65;;;;;;;23.01;51.09;96701.69;4382031;32;20100;-78
2023/10/19 11:23:03;;;;;;;11.45;4.78;;;;;;;22.65;52.00;96693.53;4394825;32;20509;-79
2023/10/19 11:25:31;;;;;;;10.60;3.50;;;;;;;22.57;52.61;96688.31;4395055;32;20098;-79
2023/10/19 11:28:01;;;;;;;7.30;3.35;;;;;;;22.65;52.72;96684.78;4395195;32;20087;-79
2023/10/19 11:30:32;;;;;;;12.45;3.60;;;;;;;23.06;52.05;96694.06;4394789;32;20109;-79
2023/10/19 11:33:00;;;;;;;9.50;3.28;;;;;;;22.94;52.21;96684.97;4381493;32;20137;-78
2023/10/19 11:35:30;;;;;;;8.52;3.70;;;;;;;22.89;52.27;96678.63;4394979;32;20094;-78
2023/10/19 11:37:59;;;;;;;8.85;3.28;;;;;;;22.62;52.77;96683.34;4394844;32;20100;-78
2023/10/19 11:40:27;;;;;;;8.55;3.55;;;;;;;22.95;52.24;96689.22;4394984;32;20079;-78
2023/10/19 11:42:58;;;;;;;8.20;3.20;;;;;;;23.19;51.67;96685.63;4381067;32;20113;-78
2023/10/19 11:45:26;;;;;;;9.68;3.17;;;;;;;22.55;53.17;96687.69;4395046;32;20140;-78
2023/10/19 11:47:54;;;;;;;7.35;3.42;;;;;;;22.58;53.14;96686.50;4395156;32;20102;-78
2023/10/19 11:50:21;;;;;;;8.18;3.22;;;;;;;22.48;53.25;96663.88;4394539;32;20125;-79
2023/10/19 11:52:48;;;;;;;8.70;3.03;;;;;;;23.13;52.61;96683.69;4394761;32;20098;-78
2023/10/19 11:55:15;;;;;;;11.30;3.28;;;;;;;23.08;52.05;96678.97;4394914;32;20612;-78
2023/10/19 11:57:43;;;;;;;9.05;3.00;;;;;;;23.06;52.29;96677.47;4394801;32;20086;-78
2023/10/19 12:00:19;;;;;;;8.15;3.42;;;;;;;22.72;53.16;96673.41;4394973;32;20090;-78
2023/10/19 12:02:49;;;;;;;7.53;3.37;;;;;;;23.30;51.65;96676.47;4394953;32;20110;-78
2023/10/19 12:05:16;;;;;;;10.52;2.70;;;;;;;23.39;51.66;96675.38;4380807;32;20141;-78
2023/10/19 12:07:45;;;;;;;8.90;3.22;;;;;;;22.96;52.19;96666.38;4395110;32;20588;-78